Time;durP1;ratioP1;P1;durP2;ratioP2;P2;SDS_P1;SDS_P2;PMS_P1;PMS_P2;Temp;Humidity;BMP_temperature;BMP_pressure;BME280_temperature;BME280_humidity;BME280_pressure;Samples;Min_cycle;Max_cycle;Signal;HPM_P1;HPM_P2
2022/03/30 00:00:29;;;;;;;31.88;21.83;;;;;;;;;;5076030;28;20044;-71
2022/03/30 00:02:54;;;;;;;31.95;21.63;;;;;;;;;;5076034;28;20033;-71
2022/03/30 00:05:20;;;;;;;31.45;20.52;;;;;;;;;;5075821;28;20060;-71
2022/03/30 00:07:52;;;;;;;31.73;20.58;;;;;;;;;;5075452;28;20020;-71
2022/03/30 00:10:18;;;;;;;32.53;21.92;;;;;;;;;;5075686;28;20434;-71
2022/03/30 00:12:43;;;;;;;35.55;22.08;;;;;;;;;;5075570;28;20024;-71
2022/03/30 00:15:09;;;;;;;33.53;21.98;;;;;;;;;;5075487;28;20471;-71
2022/03/30 00:17:34;;;;;;;33.72;21.58;;;;;;;;;;5057937;28;20036;-72
2022/03/30 00:20:01;;;;;;;35.72;23.48;;;;;;;;;;5075677;28;20033;-72
2022/03/30 00:22:26;;;;;;;33.95;22.45;;;;;;;;;;5075634;28;20086;-72
2022/03/30 00:24:52;;;;;;;30.20;20.08;;;;;;;;;;5057392;28;20037;-72
2022/03/30 00:27:17;;;;;;;35.05;23.45;;;;;;;;;;5075642;28;20029;-72
2022/03/30 00:29:44;;;;;;;33.13;21.08;;;;;;;;;;5057505;28;20083;-72
2022/03/30 00:32:10;;;;;;;32.42;21.17;;;;;;;;;;5075619;28;20024;-72
2022/03/30 00:34:36;;;;;;;29.40;19.30;;;;;;;;;;5075165;28;20542;-72
2022/03/30 00:37:01;;;;;;;32.47;20.13;;;;;;;;;;5057302;28;20479;-72
2022/03/30 00:39:26;;;;;;;27.73;19.85;;;;;;;;;;5057390;28;20484;-72
2022/03/30 00:41:52;;;;;;;30.13;19.33;;;;;;;;;;5074966;28;20341;-70
2022/03/30 00:44:17;;;;;;;28.88;20.63;;;;;;;;;;5075385;28;20040;-70
2022/03/30 00:46:43;;;;;;;31.08;21.38;;;;;;;;;;5075166;28;20017;-70
2022/03/30 00:49:09;;;;;;;30.92;20.48;;;;;;;;;;5075038;28;20086;-70
2022/03/30 00:51:35;;;;;;;33.60;22.00;;;;;;;;;;5075049;28;20103;-70
2022/03/30 00:54:00;;;;;;;41.65;25.00;;;;;;;;;;5074675;28;20522;-70
2022/03/30 00:56:27;;;;;;;31.63;20.92;;;;;;;;;;5075026;28;20453;-71
2022/03/30 00:58:53;;;;;;;28.48;18.95;;;;;;;;;;5074695;28;20045;-69
2022/03/30 01:01:20;;;;;;;29.73;19.10;;;;;;;;;;5075240;28;20078;-70
2022/03/30 01:03:46;;;;;;;28.80;18.77;;;;;;;;;;5074840;28;20036;-70
2022/03/30 01:06:11;;;;;;;29.00;18.88;;;;;;;;;;5074757;28;20089;-70
2022/03/30 01:08:37;;;;;;;27.98;18.48;;;;;;;;;;5074599;28;20036;-70
2022/03/30 01:11:03;;;;;;;30.45;19.23;;;;;;;;;;5074456;28;20052;-70
2022/03/30 01:13:29;;;;;;;26.55;18.40;;;;;;;;;;5056700;28;20094;-70
2022/03/30 01:15:54;;;;;;;30.02;19.33;;;;;;;;;;5074264;28;20146;-70
2022/03/30 01:18:21;;;;;;;28.10;19.85;;;;;;;;;;5074332;28;20047;-70
2022/03/30 01:20:49;;;;;;;27.63;19.52;;;;;;;;;;5056312;28;20036;-70
2022/03/30 01:23:15;;;;;;;30.55;20.15;;;;;;;;;;5074017;28;20036;-71
2022/03/30 01:25:40;;;;;;;28.60;19.65;;;;;;;;;;5074164;28;20077;-71
2022/03/30 01:28:06;;;;;;;28.27;19.58;;;;;;;;;;5074248;28;20055;-70
2022/03/30 01:33:15;;;;;;;31.98;20.17;;;;;;;;;;5074262;28;20067;-70
2022/03/30 01:35:41;;;;;;;28.50;19.27;;;;;;;;;;5074316;28;20459;-71
2022/03/30 01:38:07;;;;;;;28.23;19.45;;;;;;;;;;5056481;28;20430;-71
2022/03/30 01:40:32;;;;;;;27.13;19.52;;;;;;;;;;5073970;28;20020;-70
2022/03/30 01:42:58;;;;;;;31.00;20.38;;;;;;;;;;5073729;28;20386;-70
2022/03/30 01:45:23;;;;;;;30.40;19.20;;;;;;;;;;5073588;28;20483;-71
2022/03/30 01:47:54;;;;;;;32.63;20.92;;;;;;;;;;5073803;28;20047;-71
2022/03/30 01:50:19;;;;;;;;;;;;;;;;;;5074231;28;20043;-71
2022/03/30 01:52:45;;;;;;;30.33;19.88;;;;;;;;;;5039100;28;19999;-70
2022/03/30 01:55:11;;;;;;;29.45;20.08;;;;;;;;;;5055910;28;20091;-71
2022/03/30 01:57:36;;;;;;;27.85;19.15;;;;;;;;;;5073476;28;20036;-71
2022/03/30 02:00:04;;;;;;;35.45;22.27;;;;;;;;;;5073684;28;20127;-71
2022/03/30 02:02:38;;;;;;;32.83;22.30;;;;;;;;;;5073475;28;20024;-71
2022/03/30 02:05:04;;;;;;;35.28;22.05;;;;;;;;;;5073701;28;20368;-71
2022/03/30 02:07:29;;;;;;;38.38;22.27;;;;;;;;;;5055708;28;20032;-71
2022/03/30 02:09:54;;;;;;;32.05;21.90;;;;;;;;;;5073655;28;20042;-71
2022/03/30 02:12:20;;;;;;;36.72;21.42;;;;;;;;;;5073632;28;20016;-71
2022/03/30 02:14:46;;;;;;;37.95;24.30;;;;;;;;;;5073479;28;20044;-71
2022/03/30 02:17:11;;;;;;;38.20;24.30;;;;;;;;;;5073446;28;20033;-72
2022/03/30 02:19:37;;;;;;;37.45;22.73;;;;;;;;;;5072962;28;20059;-72
2022/03/30 02:22:02;;;;;;;33.72;22.33;;;;;;;;;;5055344;28;20033;-72
2022/03/30 02:24:27;;;;;;;31.55;20.90;;;;;;;;;;5073352;28;20093;-72
2022/03/30 02:26:53;;;;;;;32.20;20.95;;;;;;;;;;5073256;28;20074;-72
2022/03/30 02:29:19;;;;;;;28.83;20.02;;;;;;;;;;5073211;28;20483;-72
2022/03/30 02:31:45;;;;;;;27.70;18.73;;;;;;;;;;5073296;28;20043;-72
2022/03/30 02:34:11;;;;;;;29.90;19.52;;;;;;;;;;5073197;28;20041;-71
2022/03/30 02:36:37;;;;;;;27.80;18.58;;;;;;;;;;5073629;28;20459;-71
2022/03/30 02:39:03;;;;;;;28.38;19.20;;;;;;;;;;5073536;28;20086;-71
2022/03/30 02:41:29;;;;;;;27.58;19.23;;;;;;;;;;5073082;28;20029;-69
2022/03/30 02:43:54;;;;;;;28.13;18.40;;;;;;;;;;5073504;28;20444;-70
2022/03/30 02:46:20;;;;;;;26.90;18.10;;;;;;;;;;5073599;28;20409;-70
2022/03/30 02:48:45;;;;;;;28.20;18.55;;;;;;;;;;5073748;28;20040;-71
2022/03/30 02:51:10;;;;;;;28.23;18.65;;;;;;;;;;5073072;28;20028;-70
2022/03/30 02:53:36;;;;;;;28.45;18.92;;;;;;;;;;5072961;28;20445;-70
2022/03/30 02:56:02;;;;;;;32.42;19.73;;;;;;;;;;5073231;28;20032;-70
2022/03/30 02:58:28;;;;;;;32.75;20.55;;;;;;;;;;5073195;28;20063;-71
2022/03/30 03:00:56;;;;;;;31.67;19.25;;;;;;;;;;5073049;28;20017;-72
2022/03/30 03:03:22;;;;;;;27.17;18.10;;;;;;;;;;5073189;28;20386;-71
2022/03/30 03:05:47;;;;;;;26.27;17.88;;;;;;;;;;5072819;28;20115;-71
2022/03/30 03:08:13;;;;;;;29.92;18.90;;;;;;;;;;5055260;28;20516;-71
2022/03/30 03:10:40;;;;;;;34.80;21.23;;;;;;;;;;5072915;28;20025;-72
2022/03/30 03:13:06;;;;;;;36.05;22.27;;;;;;;;;;5055086;28;20055;-73
2022/03/30 03:15:32;;;;;;;34.22;20.95;;;;;;;;;;5072867;28;20028;-63
2022/03/30 03:17:58;;;;;;;31.83;20.60;;;;;;;;;;5072823;28;20506;-63
2022/03/30 03:20:24;;;;;;;30.42;19.02;;;;;;;;;;5054925;28;20037;-64
2022/03/30 03:22:49;;;;;;;27.92;18.73;;;;;;;;;;5073031;28;20047;-62
2022/03/30 03:25:14;;;;;;;29.98;20.05;;;;;;;;;;5072952;28;20029;-62
2022/03/30 03:27:40;;;;;;;29.80;20.27;;;;;;;;;;5072672;28;20036;-62
2022/03/30 03:30:07;;;;;;;27.60;18.38;;;;;;;;;;5072780;28;20091;-69
2022/03/30 03:32:32;;;;;;;27.27;17.92;;;;;;;;;;5074236;28;20043;-69
2022/03/30 03:34:57;;;;;;;31.58;19.83;;;;;;;;;;5076411;28;20398;-69
2022/03/30 03:37:23;;;;;;;32.50;19.85;;;;;;;;;;5076366;28;20036;-69
2022/03/30 03:39:49;;;;;;;35.13;21.30;;;;;;;;;;5076404;28;20464;-69
2022/03/30 03:42:16;;;;;;;36.42;23.60;;;;;;;;;;5075749;28;20486;-70
2022/03/30 03:44:41;;;;;;;28.23;19.35;;;;;;;;;;5076108;28;20098;-62
2022/03/30 03:47:09;;;;;;;30.02;19.45;;;;;;;;;;5076265;28;20029;-62
2022/03/30 03:49:35;;;;;;;31.88;20.05;;;;;;;;;;5076007;28;20020;-62
2022/03/30 03:52:00;;;;;;;25.60;18.17;;;;;;;;;;5075917;28;20090;-62
2022/03/30 03:54:26;;;;;;;29.85;18.42;;;;;;;;;;5058100;28;20037;-62
2022/03/30 03:56:51;;;;;;;26.55;18.30;;;;;;;;;;5058160;28;20036;-62
2022/03/30 03:59:16;;;;;;;29.88;19.58;;;;;;;;;;5075507;28;20032;-63
2022/03/30 04:01:42;;;;;;;34.65;21.30;;;;;;;;;;5075788;28;20076;-63
2022/03/30 04:04:07;;;;;;;39.92;22.85;;;;;;;;;;5075605;28;20112;-63
2022/03/30 04:06:34;;;;;;;35.63;22.40;;;;;;;;;;5075795;28;20516;-63
2022/03/30 04:08:59;;;;;;;45.33;25.60;;;;;;;;;;5075593;28;20032;-63
2022/03/30 04:11:25;;;;;;;45.30;25.42;;;;;;;;;;5076081;28;20047;-62
2022/03/30 04:13:50;;;;;;;38.33;22.73;;;;;;;;;;5075911;28;20024;-62
2022/03/30 04:16:16;;;;;;;29.75;19.05;;;;;;;;;;5075607;28;20040;-63
2022/03/30 04:18:42;;;;;;;29.70;20.45;;;;;;;;;;5075493;28;20073;-63
2022/03/30 04:21:07;;;;;;;66.82;48.72;;;;;;;;;;5075717;28;20029;-63
2022/03/30 04:23:32;;;;;;;65.22;44.47;;;;;;;;;;5075739;28;20032;-63
2022/03/30 04:25:58;;;;;;;82.90;52.55;;;;;;;;;;5075474;28;20047;-63
2022/03/30 04:28:23;;;;;;;371.08;196.00;;;;;;;;;;5075056;28;20020;-63
2022/03/30 04:30:49;;;;;;;56.40;36.65;;;;;;;;;;5075138;28;20471;-63
2022/03/30 04:33:14;;;;;;;104.60;56.35;;;;;;;;;;5075240;28;20474;-63
2022/03/30 04:35:39;;;;;;;58.28;33.10;;;;;;;;;;5074991;28;20394;-63
2022/03/30 04:38:05;;;;;;;35.35;22.50;;;;;;;;;;5057322;28;20048;-62
2022/03/30 04:40:31;;;;;;;33.53;21.63;;;;;;;;;;5075149;28;20554;-62
2022/03/30 04:42:56;;;;;;;37.65;25.30;;;;;;;;;;5074794;28;20123;-62
2022/03/30 04:45:22;;;;;;;40.47;23.48;;;;;;;;;;5074884;28;20139;-62
2022/03/30 04:47:48;;;;;;;44.85;25.73;;;;;;;;;;5074798;28;20097;-62
2022/03/30 04:50:14;;;;;;;42.08;26.73;;;;;;;;;;5075010;28;20033;-62
2022/03/30 04:52:40;;;;;;;71.00;41.45;;;;;;;;;;5075000;28;20074;-62
2022/03/30 04:55:07;;;;;;;67.80;39.47;;;;;;;;;;5074833;28;20110;-62
2022/03/30 04:57:32;;;;;;;59.13;34.47;;;;;;;;;;5074867;28;20032;-62
2022/03/30 04:59:58;;;;;;;50.40;29.63;;;;;;;;;;5074608;28;20090;-62
2022/03/30 05:02:24;;;;;;;109.55;60.28;;;;;;;;;;5056761;28;20386;-62
2022/03/30 05:04:49;;;;;;;134.68;65.60;;;;;;;;;;5056503;28;20402;-62
2022/03/30 05:07:14;;;;;;;80.72;41.95;;;;;;;;;;5074460;28;20024;-62
2022/03/30 05:09:43;;;;;;;66.78;37.15;;;;;;;;;;5074395;28;20501;-62
2022/03/30 05:12:08;;;;;;;58.85;34.25;;;;;;;;;;5074461;28;20032;-62
2022/03/30 05:14:34;;;;;;;54.78;34.22;;;;;;;;;;5056412;28;20048;-62
2022/03/30 05:17:00;;;;;;;54.38;34.05;;;;;;;;;;5056537;28;20033;-62
2022/03/30 05:19:25;;;;;;;56.95;34.97;;;;;;;;;;5074388;28;20544;-62
2022/03/30 05:21:50;;;;;;;62.42;35.88;;;;;;;;;;5074153;28;20035;-63
2022/03/30 05:24:16;;;;;;;73.07;39.53;;;;;;;;;;5073999;28;20040;-62
2022/03/30 05:26:41;;;;;;;72.38;46.72;;;;;;;;;;5074257;28;20029;-63
2022/03/30 05:29:07;;;;;;;86.50;46.03;;;;;;;;;;5074178;28;20064;-63
2022/03/30 05:31:32;;;;;;;87.07;47.17;;;;;;;;;;5055950;28;20029;-63
2022/03/30 05:33:58;;;;;;;62.92;37.78;;;;;;;;;;5074370;28;20398;-64
2022/03/30 05:36:23;;;;;;;60.13;35.15;;;;;;;;;;5074099;28;20020;-64
2022/03/30 05:38:50;;;;;;;80.43;42.67;;;;;;;;;;5074115;28;20036;-63
2022/03/30 05:41:16;;;;;;;80.57;42.08;;;;;;;;;;5073737;28;20447;-64
2022/03/30 05:43:42;;;;;;;68.93;38.05;;;;;;;;;;5073907;28;20045;-64
2022/03/30 05:46:08;;;;;;;57.10;32.95;;;;;;;;;;5074108;28;20128;-63
2022/03/30 05:48:34;;;;;;;56.13;32.08;;;;;;;;;;5074139;28;20071;-64
2022/03/30 05:50:59;;;;;;;44.55;27.02;;;;;;;;;;5073983;28;20040;-65
2022/03/30 05:53:24;;;;;;;39.30;25.13;;;;;;;;;;5073786;28;20367;-65
2022/03/30 05:55:50;;;;;;;39.22;24.15;;;;;;;;;;5073039;28;20024;-64
2022/03/30 05:58:15;;;;;;;35.88;23.42;;;;;;;;;;5073721;28;20068;-64
2022/03/30 06:00:41;;;;;;;33.33;22.35;;;;;;;;;;5073537;28;20036;-63
2022/03/30 06:03:07;;;;;;;35.72;21.30;;;;;;;;;;5073408;28;20488;-63
2022/03/30 06:05:33;;;;;;;36.28;22.48;;;;;;;;;;5073346;28;20044;-63
2022/03/30 06:07:59;;;;;;;42.83;25.90;;;;;;;;;;5073515;28;20037;-63
2022/03/30 06:10:28;;;;;;;43.13;27.60;;;;;;;;;;5073360;28;20043;-62
2022/03/30 06:12:54;;;;;;;37.30;24.80;;;;;;;;;;5073535;28;20040;-71
2022/03/30 06:15:20;;;;;;;42.80;27.70;;;;;;;;;;5073244;28;20024;-62
2022/03/30 06:17:47;;;;;;;35.35;24.73;;;;;;;;;;5073172;28;20395;-62
2022/03/30 06:20:13;;;;;;;42.13;28.13;;;;;;;;;;5073186;28;20025;-62
2022/03/30 06:22:41;;;;;;;41.03;24.00;;;;;;;;;;5073111;28;20037;-62
2022/03/30 06:25:06;;;;;;;34.15;22.75;;;;;;;;;;5054653;28;20037;-62
2022/03/30 06:27:32;;;;;;;33.97;22.33;;;;;;;;;;5073170;28;20375;-63
2022/03/30 06:29:57;;;;;;;31.88;21.88;;;;;;;;;;5073050;28;20029;-62
2022/03/30 06:32:23;;;;;;;38.65;23.63;;;;;;;;;;5073052;28;20131;-62
2022/03/30 06:34:48;;;;;;;35.80;22.05;;;;;;;;;;5073018;28;20580;-62
2022/03/30 06:37:13;;;;;;;40.72;26.23;;;;;;;;;;5073131;28;20040;-62
2022/03/30 06:39:39;;;;;;;38.10;24.38;;;;;;;;;;5073109;28;20115;-62
2022/03/30 06:42:05;;;;;;;38.72;23.90;;;;;;;;;;5072458;28;20043;-63
2022/03/30 06:44:32;;;;;;;32.50;21.15;;;;;;;;;;5072808;28;20047;-62
2022/03/30 06:46:58;;;;;;;38.20;23.17;;;;;;;;;;5072915;28;20079;-62
2022/03/30 06:49:24;;;;;;;34.60;21.35;;;;;;;;;;5072759;28;20068;-62
2022/03/30 06:51:52;;;;;;;31.80;19.80;;;;;;;;;;5072899;28;20036;-62
2022/03/30 06:54:17;;;;;;;38.33;22.00;;;;;;;;;;5054866;28;20045;-62
2022/03/30 06:56:43;;;;;;;37.78;22.10;;;;;;;;;;5072787;28;20475;-62
2022/03/30 06:59:12;;;;;;;37.28;21.70;;;;;;;;;;5054908;28;20040;-62
2022/03/30 07:01:37;;;;;;;34.08;20.45;;;;;;;;;;5072858;28;20040;-62
2022/03/30 07:04:02;;;;;;;38.67;23.17;;;;;;;;;;5072648;28;20028;-62
2022/03/30 07:06:28;;;;;;;37.22;20.35;;;;;;;;;;5074056;28;20417;-62
2022/03/30 07:11:37;;;;;;;29.70;18.58;;;;;;;;;;5075694;28;20487;-62
2022/03/30 07:14:03;;;;;;;37.40;21.88;;;;;;;;;;5076503;28;20082;-63
2022/03/30 07:16:30;;;;;;;41.95;24.50;;;;;;;;;;5076485;28;20082;-64
2022/03/30 07:18:57;;;;;;;36.25;23.90;;;;;;;;;;5042303;28;20616;-63
2022/03/30 07:21:23;;;;;;;33.70;20.63;;;;;;;;;;5076274;28;20124;-63
2022/03/30 07:23:48;;;;;;;39.13;23.30;;;;;;;;;;5076455;28;20489;-63
2022/03/30 07:26:13;;;;;;;37.22;23.33;;;;;;;;;;5058524;28;20042;-63
2022/03/30 07:28:39;;;;;;;34.05;20.83;;;;;;;;;;5076352;28;20382;-63
2022/03/30 07:31:04;;;;;;;37.00;21.90;;;;;;;;;;5076616;28;20040;-71
2022/03/30 07:33:32;;;;;;;43.28;24.98;;;;;;;;;;5076204;28;20061;-71
2022/03/30 07:35:58;;;;;;;40.13;24.85;;;;;;;;;;5076125;28;20098;-72
2022/03/30 07:38:25;;;;;;;37.33;22.80;;;;;;;;;;5076136;28;20486;-70
2022/03/30 07:40:52;;;;;;;45.40;27.25;;;;;;;;;;5076055;28;20048;-69
2022/03/30 07:43:17;;;;;;;45.42;27.25;;;;;;;;;;5075867;28;20060;-70
2022/03/30 07:45:44;;;;;;;42.47;23.90;;;;;;;;;;5076042;28;20074;-70
2022/03/30 07:48:09;;;;;;;43.85;26.40;;;;;;;;;;5075903;28;20029;-70
2022/03/30 07:50:36;;;;;;;42.03;26.55;;;;;;;;;;5075954;28;20478;-72
2022/03/30 07:53:01;;;;;;;42.35;24.88;;;;;;;;;;5075674;28;20021;-71
2022/03/30 07:55:28;;;;;;;37.80;23.17;;;;;;;;;;5075572;28;20074;-70
2022/03/30 07:57:54;;;;;;;35.42;21.63;;;;;;;;;;5075970;28;20020;-70
2022/03/30 08:00:21;;;;;;;26.40;15.75;;;;;;;;;;5075665;28;20040;-70
2022/03/30 08:02:47;;;;;;;26.13;17.50;;;;;;;;;;5075537;28;20150;-70
2022/03/30 08:05:13;;;;;;;28.83;17.92;;;;;;;;;;5075640;28;20110;-70
2022/03/30 08:07:39;;;;;;;36.47;20.75;;;;;;;;;;5075367;28;20022;-70
2022/03/30 08:10:05;;;;;;;32.70;19.20;;;;;;;;;;5075494;28;20110;-70
2022/03/30 08:12:31;;;;;;;38.60;23.60;;;;;;;;;;5075179;28;20071;-70
2022/03/30 08:14:56;;;;;;;31.80;20.52;;;;;;;;;;5057542;28;20118;-70
2022/03/30 08:17:22;;;;;;;30.48;19.60;;;;;;;;;;5074955;28;20032;-70
2022/03/30 08:19:47;;;;;;;31.83;20.17;;;;;;;;;;5075023;28;20136;-71
2022/03/30 08:22:28;;;;;;;31.67;20.27;;;;;;;;;;5075401;28;20064;-70
2022/03/30 08:25:06;;;;;;;30.80;20.40;;;;;;;;;;5074906;28;20043;-71
2022/03/30 08:27:33;;;;;;;28.42;17.77;;;;;;;;;;5075126;28;20036;-71
2022/03/30 08:29:58;;;;;;;31.65;18.92;;;;;;;;;;5075178;28;20028;-71
2022/03/30 08:32:24;;;;;;;31.13;19.00;;;;;;;;;;5057276;28;20036;-70
2022/03/30 08:34:50;;;;;;;30.50;18.98;;;;;;;;;;5075065;28;20112;-69
2022/03/30 08:37:16;;;;;;;33.13;19.65;;;;;;;;;;5075046;28;20507;-69
2022/03/30 08:39:43;;;;;;;30.48;19.98;;;;;;;;;;5074940;28;20033;-68
2022/03/30 08:42:09;;;;;;;31.23;19.70;;;;;;;;;;5074827;28;20098;-68
2022/03/30 08:44:36;;;;;;;34.78;20.55;;;;;;;;;;5074671;28;20323;-68
2022/03/30 08:47:03;;;;;;;30.70;19.42;;;;;;;;;;5074636;28;20430;-68
2022/03/30 08:49:33;;;;;;;28.92;18.88;;;;;;;;;;5074906;28;20419;-68
2022/03/30 08:51:58;;;;;;;;;;;;;;;;;;5075001;28;20036;-68
2022/03/30 08:54:24;;;;;;;33.25;21.23;;;;;;;;;;5074990;28;20366;-68
2022/03/30 08:56:49;;;;;;;27.88;18.27;;;;;;;;;;5074931;28;20115;-63
2022/03/30 08:59:16;;;;;;;20.98;14.57;;;;;;;;;;5074690;28;20097;-62
2022/03/30 09:01:43;;;;;;;31.50;19.27;;;;;;;;;;5074463;28;20146;-62
2022/03/30 09:04:11;;;;;;;32.38;19.77;;;;;;;;;;5074227;28;20068;-62
2022/03/30 09:06:36;;;;;;;31.35;19.33;;;;;;;;;;5073819;28;20178;-61
2022/03/30 09:09:03;;;;;;;22.30;14.32;;;;;;;;;;5073983;28;20111;-61
2022/03/30 09:11:30;;;;;;;25.75;13.20;;;;;;;;;;5074043;28;20075;-64
2022/03/30 09:13:59;;;;;;;23.20;13.73;;;;;;;;;;5074269;28;20052;-64
2022/03/30 09:16:35;;;;;;;27.10;18.50;;;;;;;;;;5074164;28;20028;-64
2022/03/30 09:19:04;;;;;;;24.63;14.18;;;;;;;;;;5074143;28;20040;-64
2022/03/30 09:21:49;;;;;;;20.40;13.63;;;;;;;;;;5073825;28;20025;-64
2022/03/30 09:24:16;;;;;;;26.13;15.77;;;;;;;;;;5073503;28;20059;-64
2022/03/30 09:26:42;;;;;;;27.58;17.15;;;;;;;;;;5056218;28;20436;-64
2022/03/30 09:29:09;;;;;;;26.63;17.05;;;;;;;;;;5073320;28;20037;-64
2022/03/30 09:31:35;;;;;;;27.17;15.20;;;;;;;;;;5073254;28;20023;-64
2022/03/30 09:34:05;;;;;;;24.13;17.58;;;;;;;;;;5073888;28;20032;-64
2022/03/30 09:36:35;;;;;;;22.40;15.50;;;;;;;;;;5073491;28;20041;-64
2022/03/30 09:39:01;;;;;;;26.67;16.45;;;;;;;;;;5073656;28;20068;-64
2022/03/30 09:41:26;;;;;;;25.92;17.02;;;;;;;;;;5073394;28;20109;-64
2022/03/30 09:44:03;;;;;;;29.65;17.20;;;;;;;;;;5073581;28;20128;-64
2022/03/30 09:46:28;;;;;;;30.73;18.38;;;;;;;;;;5073580;28;20552;-64
2022/03/30 09:48:54;;;;;;;24.10;16.63;;;;;;;;;;5073469;28;20063;-64
2022/03/30 09:51:21;;;;;;;28.52;18.33;;;;;;;;;;5073565;28;20502;-64
2022/03/30 09:53:47;;;;;;;16.50;11.40;;;;;;;;;;5073611;28;20504;-64
2022/03/30 09:56:14;;;;;;;23.40;14.57;;;;;;;;;;5073318;28;20043;-64
2022/03/30 09:58:41;;;;;;;19.73;13.80;;;;;;;;;;5072861;28;20425;-64
2022/03/30 10:01:08;;;;;;;15.82;11.50;;;;;;;;;;5073179;28;20049;-64
2022/03/30 10:04:04;;;;;;;18.90;12.60;;;;;;;;;;5073186;28;20028;-64
2022/03/30 10:06:31;;;;;;;13.68;10.13;;;;;;;;;;5052420;28;20064;-64
2022/03/30 10:08:56;;;;;;;29.90;17.42;;;;;;;;;;5073213;28;20033;-64
2022/03/30 10:11:22;;;;;;;21.85;14.52;;;;;;;;;;5073301;28;20402;-64
2022/03/30 10:13:49;;;;;;;19.90;12.38;;;;;;;;;;5073378;28;20115;-64
2022/03/30 10:16:17;;;;;;;24.83;16.88;;;;;;;;;;5055337;28;20372;-64
2022/03/30 10:18:42;;;;;;;26.23;16.10;;;;;;;;;;5073091;28;20132;-64
2022/03/30 10:21:16;;;;;;;18.45;12.55;;;;;;;;;;5073399;28;20498;-65
2022/03/30 10:24:00;;;;;;;25.42;16.45;;;;;;;;;;5073044;28;20124;-65
2022/03/30 10:26:44;;;;;;;24.48;15.73;;;;;;;;;;5072954;28;20123;-64
2022/03/30 10:29:11;;;;;;;30.55;18.40;;;;;;;;;;5073074;28;20425;-64
2022/03/30 10:31:37;;;;;;;29.70;19.17;;;;;;;;;;5055078;28;20032;-64
2022/03/30 10:34:21;;;;;;;29.73;19.98;;;;;;;;;;5072827;28;20445;-64
2022/03/30 10:37:05;;;;;;;31.98;18.48;;;;;;;;;;5054932;28;20458;-64
2022/03/30 10:39:31;;;;;;;32.55;19.17;;;;;;;;;;5072849;28;20047;-64
2022/03/30 10:42:07;;;;;;;25.77;16.08;;;;;;;;;;5074647;28;20260;-64
2022/03/30 10:44:55;;;;;;;32.58;19.17;;;;;;;;;;5076978;28;20041;-65
2022/03/30 10:47:25;;;;;;;30.20;19.00;;;;;;;;;;5077378;28;20143;-65
2022/03/30 10:49:52;;;;;;;29.08;19.60;;;;;;;;;;5077184;28;20131;-65
2022/03/30 10:52:23;;;;;;;35.25;20.90;;;;;;;;;;5076782;28;20079;-65
2022/03/30 10:54:50;;;;;;;32.42;20.70;;;;;;;;;;5058490;28;20045;-65
2022/03/30 10:57:38;;;;;;;31.20;19.77;;;;;;;;;;5076878;28;20034;-65
2022/03/30 11:00:07;;;;;;;27.73;17.52;;;;;;;;;;5076294;28;20059;-64
2022/03/30 11:02:41;;;;;;;28.52;17.42;;;;;;;;;;5076523;28;20035;-65
2022/03/30 11:05:08;;;;;;;26.58;17.05;;;;;;;;;;5076489;28;20131;-65
2022/03/30 11:07:34;;;;;;;24.73;14.27;;;;;;;;;;5076422;28;20496;-64
2022/03/30 11:10:19;;;;;;;26.52;16.42;;;;;;;;;;5076767;28;20072;-65
2022/03/30 11:13:00;;;;;;;23.38;15.48;;;;;;;;;;5076459;28;20036;-65
2022/03/30 11:15:26;;;;;;;22.95;15.15;;;;;;;;;;5076404;28;20032;-65
2022/03/30 11:17:52;;;;;;;22.05;14.32;;;;;;;;;;5076559;28;20029;-64
2022/03/30 11:20:19;;;;;;;23.63;13.50;;;;;;;;;;5076275;28;20086;-64
2022/03/30 11:22:46;;;;;;;27.80;16.60;;;;;;;;;;5076325;28;20424;-65
2022/03/30 11:25:13;;;;;;;26.42;16.23;;;;;;;;;;5075915;28;20048;-64
2022/03/30 11:27:39;;;;;;;28.60;18.10;;;;;;;;;;5076115;28;20093;-65
2022/03/30 11:30:18;;;;;;;29.80;17.83;;;;;;;;;;5075739;28;20029;-64
2022/03/30 11:32:54;;;;;;;49.13;31.08;;;;;;;;;;5075893;28;20394;-65
2022/03/30 11:35:22;;;;;;;27.60;18.65;;;;;;;;;;5075955;28;20040;-64
2022/03/30 11:37:47;;;;;;;27.48;17.13;;;;;;;;;;5075781;28;20068;-64
2022/03/30 11:40:14;;;;;;;26.10;16.13;;;;;;;;;;5075943;28;20072;-64
2022/03/30 11:42:41;;;;;;;20.73;14.90;;;;;;;;;;5075612;28;20053;-65
2022/03/30 11:45:14;;;;;;;21.13;14.50;;;;;;;;;;5057798;28;20399;-64
2022/03/30 11:47:44;;;;;;;35.38;20.42;;;;;;;;;;5075961;28;20032;-64
2022/03/30 11:50:14;;;;;;;44.35;24.48;;;;;;;;;;5057467;28;20043;-65
2022/03/30 11:52:40;;;;;;;24.30;15.68;;;;;;;;;;5074515;28;20103;-64
2022/03/30 11:55:07;;;;;;;22.17;14.85;;;;;;;;;;5075364;28;20035;-64
2022/03/30 11:57:41;;;;;;;26.17;15.73;;;;;;;;;;5075728;28;20398;-64
2022/03/30 12:00:09;;;;;;;25.48;15.77;;;;;;;;;;5075678;28;20127;-64
2022/03/30 12:02:38;;;;;;;21.40;14.25;;;;;;;;;;5075744;28;20032;-64
2022/03/30 12:05:04;;;;;;;20.90;13.80;;;;;;;;;;5075364;28;20133;-64
2022/03/30 12:07:33;;;;;;;19.05;13.40;;;;;;;;;;5075483;28;20063;-64
2022/03/30 12:09:58;;;;;;;21.92;13.13;;;;;;;;;;5075507;28;20071;-64
2022/03/30 12:12:25;;;;;;;19.58;11.15;;;;;;;;;;5075306;28;20064;-64
2022/03/30 12:15:00;;;;;;;12.00;8.63;;;;;;;;;;5057105;28;20402;-64
2022/03/30 12:17:26;;;;;;;17.63;11.43;;;;;;;;;;5075031;28;20028;-64
2022/03/30 12:19:51;;;;;;;16.58;12.00;;;;;;;;;;5075419;28;20112;-70
2022/03/30 12:22:17;;;;;;;21.77;11.38;;;;;;;;;;5075210;28;20044;-62
2022/03/30 12:24:43;;;;;;;15.50;10.48;;;;;;;;;;5074951;28;20387;-64
2022/03/30 12:27:08;;;;;;;18.77;11.32;;;;;;;;;;5075314;28;20076;-64
2022/03/30 12:29:34;;;;;;;17.15;12.15;;;;;;;;;;5075272;28;20039;-64
2022/03/30 12:31:59;;;;;;;18.00;11.82;;;;;;;;;;5075197;28;20036;-64
2022/03/30 12:34:29;;;;;;;16.30;11.23;;;;;;;;;;5075022;28;20075;-64
2022/03/30 12:37:01;;;;;;;17.02;11.55;;;;;;;;;;5075056;28;20086;-64
2022/03/30 12:39:32;;;;;;;18.60;11.65;;;;;;;;;;5075009;28;20101;-64
2022/03/30 12:42:02;;;;;;;19.80;12.43;;;;;;;;;;5074620;28;20406;-64
2022/03/30 12:44:32;;;;;;;18.70;12.27;;;;;;;;;;5074700;28;20475;-64
2022/03/30 12:47:01;;;;;;;17.88;11.90;;;;;;;;;;5074615;28;20424;-63
2022/03/30 12:49:44;;;;;;;19.60;12.02;;;;;;;;;;5074840;28;20025;-64
2022/03/30 12:52:14;;;;;;;19.75;12.93;;;;;;;;;;5074612;28;20041;-64
2022/03/30 12:54:40;;;;;;;20.77;12.73;;;;;;;;;;5074897;28;20039;-64
2022/03/30 12:57:06;;;;;;;20.40;12.88;;;;;;;;;;5074255;28;20032;-64
2022/03/30 12:59:32;;;;;;;23.58;14.05;;;;;;;;;;5074579;28;20079;-64
2022/03/30 13:01:58;;;;;;;23.52;13.55;;;;;;;;;;5074253;28;20039;-64
2022/03/30 13:04:24;;;;;;;18.73;13.35;;;;;;;;;;5074011;28;20438;-64
2022/03/30 13:07:05;;;;;;;24.50;14.60;;;;;;;;;;5074367;28;20021;-64
2022/03/30 13:09:30;;;;;;;25.52;14.68;;;;;;;;;;5074587;28;20036;-64
2022/03/30 13:11:57;;;;;;;20.83;14.10;;;;;;;;;;5074599;28;20031;-72
2022/03/30 13:14:24;;;;;;;24.55;14.05;;;;;;;;;;5074191;28;20039;-73
2022/03/30 13:16:58;;;;;;;23.70;14.90;;;;;;;;;;5074178;28;20547;-73
2022/03/30 13:19:24;;;;;;;23.70;15.25;;;;;;;;;;5074220;28;20051;-73
2022/03/30 13:21:50;;;;;;;21.08;13.73;;;;;;;;;;5074055;28;20111;-73
2022/03/30 13:24:20;;;;;;;23.75;14.43;;;;;;;;;;5074066;28;20145;-73
2022/03/30 13:26:46;;;;;;;25.92;15.15;;;;;;;;;;5074742;28;20032;-73
2022/03/30 13:29:12;;;;;;;26.90;15.00;;;;;;;;;;5073865;28;20363;-73
2022/03/30 13:31:43;;;;;;;22.35;14.00;;;;;;;;;;5074573;28;20032;-73
2022/03/30 13:34:10;;;;;;;20.33;13.02;;;;;;;;;;5074063;28;20090;-73
2022/03/30 13:36:35;;;;;;;20.95;13.32;;;;;;;;;;5074511;28;20115;-73
2022/03/30 13:39:02;;;;;;;64.95;36.63;;;;;;;;;;5073373;28;20135;-73
2022/03/30 13:41:27;;;;;;;23.75;15.65;;;;;;;;;;5073723;28;20029;-72
2022/03/30 13:43:53;;;;;;;22.63;13.57;;;;;;;;;;5073514;28;20040;-73
2022/03/30 13:46:19;;;;;;;20.80;12.88;;;;;;;;;;5073336;28;20040;-73
2022/03/30 13:48:45;;;;;;;20.33;13.30;;;;;;;;;;5073567;28;20095;-73
2022/03/30 13:51:11;;;;;;;21.85;13.07;;;;;;;;;;5073685;28;20033;-73
2022/03/30 13:53:37;;;;;;;25.50;14.02;;;;;;;;;;5073521;28;20079;-73
2022/03/30 13:56:06;;;;;;;25.92;13.45;;;;;;;;;;5073737;28;20025;-73
2022/03/30 13:58:31;;;;;;;27.00;15.05;;;;;;;;;;5073621;28;20352;-73
2022/03/30 14:00:57;;;;;;;32.90;16.33;;;;;;;;;;5073375;28;20040;-73
2022/03/30 14:03:23;;;;;;;30.25;16.20;;;;;;;;;;5073492;28;20036;-73
2022/03/30 14:05:49;;;;;;;29.15;16.00;;;;;;;;;;5073400;28;20086;-72
2022/03/30 14:08:14;;;;;;;63.17;24.75;;;;;;;;;;5055380;28;20063;-73
2022/03/30 14:10:40;;;;;;;59.85;25.30;;;;;;;;;;5073353;28;20112;-73
2022/03/30 14:13:06;;;;;;;23.10;14.30;;;;;;;;;;5073155;28;20394;-73
2022/03/30 14:15:31;;;;;;;25.15;13.73;;;;;;;;;;5072865;28;20082;-73
2022/03/30 14:17:57;;;;;;;22.30;13.25;;;;;;;;;;5072982;28;20055;-73
2022/03/30 14:20:22;;;;;;;19.80;12.45;;;;;;;;;;5073229;28;20028;-73
2022/03/30 14:22:49;;;;;;;22.92;13.07;;;;;;;;;;5055286;28;20036;-73